Willow, Oklahoma
Current Conditions -  °F | °C
As of 2:55 PM on Thursday 27 Nov 2014 (Local Time) from KAXS Reporting Station
Clear Clear  
Wind Chill: 53°   Ceiling: Unl
Heat Index: 53°   Visibility: 10mi
Dew Point: 25°   Wind: 14mph
Humidity: 34%   Direction: 160°SSE
Pressure: 30.4"   Gusts: NA
Location:  35.05°N, 99.51°W
Report Text: KAXS 272055Z AUTO 16012KT 10SM CLR 12/M04 A3040 RMK AO2 T01151038
Loading
Personal Weather Stations






























Interactive Weather Map New forecast layout! Learn more

10-Day Weather Forecast

Advertisements
Track Severe Weather on mobile